»·PEaware :: N147AB KSAN-KSNA

N147AB :: KSAN-KSNA

FLIGHT INFORMATION

Flight Status: Arrived
Operator: Privately registered:
United States
More flights under this callsign
Pilot: Anonymous 18613 (18613)
Aircraft: CESSNA 172 SKYHAWK
(C172)
More flights by this aircraft type
Origin: KSAN San Diego Intl-Lindbergh
United States
Destination: KSNA John Wayne-Orange Co
United States
More flights between these airports :: More routes between these airports
Route: +OCN V23 SLI
File this flight plan on PilotEdge
Remarks:
Altitude:
(Current/Filed)
6,000ft
Speed:
(Current/Filed)
120kts
Departed: 01-Oct-18 04:52 PM
Arrived: 01-Oct-18 05:54 PM
Distance/Time
Traveled:
66nm/1:01
Distance/Time
To Go:
Arrived

Flight Plot

Page will automatically refresh every two minutes.


Map Options




Map Legend


Flown Route
Filed Route
Departure Airport
Arrival Airport
Navaid (VOR, NDB)
Fix

Horizontal Profiles

Position Reports

Time Latitude Longitude Heading Altitude Ground
Speed
01-Oct-18 16:39 32.732420 -117.176641 194 21ft 0kts
01-Oct-18 16:40 32.732420 -117.176641 194 21ft 0kts
01-Oct-18 16:41 32.732420 -117.176641 194 21ft 0kts
01-Oct-18 16:42 32.732420 -117.176641 194 21ft 0kts
01-Oct-18 16:43 32.732420 -117.176641 194 21ft 0kts
01-Oct-18 16:44 32.732420 -117.176641 194 21ft 0kts
01-Oct-18 16:45 32.732420 -117.176641 194 21ft 0kts
01-Oct-18 16:46 32.732420 -117.176641 194 21ft 0kts
01-Oct-18 16:47 32.732420 -117.176641 194 21ft 0kts
01-Oct-18 16:48 32.732419 -117.176642 194 21ft 0kts
01-Oct-18 16:49 32.731619 -117.176504 143 21ft 7kts
01-Oct-18 16:50 32.730884 -117.175382 165 21ft 0kts
01-Oct-18 16:51 32.730884 -117.175382 165 21ft 0kts
01-Oct-18 16:52 32.730884 -117.175382 165 21ft 0kts
01-Oct-18 16:53 32.730788 -117.175327 153 21ft 6kts
01-Oct-18 16:54 32.731546 -117.181761 287 101ft 75kts
01-Oct-18 16:55 32.743830 -117.203054 322 987ft 86kts
01-Oct-18 16:56 32.761888 -117.218879 322 1847ft 86kts
01-Oct-18 16:57 32.781287 -117.235617 325 2729ft 87kts
01-Oct-18 16:58 32.800900 -117.252656 323 3548ft 88kts
01-Oct-18 16:59 32.820867 -117.270017 326 4319ft 90kts
01-Oct-18 17:00 32.841322 -117.287603 325 5039ft 92kts
01-Oct-18 17:01 32.861949 -117.305944 328 5710ft 93kts
01-Oct-18 17:02 32.886374 -117.322082 347 5904ft 120kts
01-Oct-18 17:03 32.918217 -117.330870 348 6045ft 118kts
01-Oct-18 17:04 32.953002 -117.338589 349 6044ft 132kts
01-Oct-18 17:05 32.990118 -117.343890 351 6079ft 135kts
01-Oct-18 17:06 33.027794 -117.351813 344 5997ft 137kts
01-Oct-18 17:07 33.064554 -117.362794 342 5970ft 135kts
01-Oct-18 17:08 33.100417 -117.375361 341 5941ft 134kts
01-Oct-18 17:09 33.136133 -117.384626 346 5903ft 134kts
01-Oct-18 17:10 33.171627 -117.396223 341 5935ft 131kts
01-Oct-18 17:11 33.206913 -117.407977 341 5966ft 133kts
01-Oct-18 17:12 33.242752 -117.420037 323 5948ft 134kts
01-Oct-18 17:13 33.269680 -117.449573 318 5981ft 132kts
01-Oct-18 17:14 33.297005 -117.478210 315 5993ft 131kts
01-Oct-18 17:15 33.324605 -117.506776 318 6017ft 131kts
01-Oct-18 17:16 33.352850 -117.534090 317 6031ft 131kts
01-Oct-18 17:17 33.379453 -117.563458 312 6050ft 129kts
01-Oct-18 17:18 33.405874 -117.592780 313 6062ft 129kts
01-Oct-18 17:19 33.432316 -117.621149 312 6070ft 129kts
01-Oct-18 17:20 33.458664 -117.650162 316 6086ft 129kts
01-Oct-18 17:21 33.482586 -117.680787 310 6090ft 129kts
01-Oct-18 17:22 33.507738 -117.711385 306 6105ft 128kts
01-Oct-18 17:23 33.529290 -117.745725 305 6035ft 130kts
01-Oct-18 17:24 33.551607 -117.780100 306 5974ft 130kts
01-Oct-18 17:25 33.574120 -117.814114 308 5916ft 131kts
01-Oct-18 17:26 33.597743 -117.848664 308 5201ft 137kts
01-Oct-18 17:27 33.620854 -117.881432 308 4173ft 132kts
01-Oct-18 17:28 33.644508 -117.910428 320 3945ft 120kts
01-Oct-18 17:29 33.671335 -117.933925 319 4059ft 119kts
01-Oct-18 17:30 33.697496 -117.960098 315 4155ft 121kts
01-Oct-18 17:31 33.723581 -117.989090 317 3994ft 128kts
01-Oct-18 17:32 33.750160 -118.015653 313 3981ft 123kts
01-Oct-18 17:33 33.775049 -118.044279 321 4027ft 126kts
01-Oct-18 17:34 33.797333 -118.020507 67 4017ft 135kts
01-Oct-18 17:35 33.812377 -117.978441 64 3899ft 136kts
01-Oct-18 17:36 33.826548 -117.942696 60 3921ft 131kts
01-Oct-18 17:37 33.842072 -117.902351 62 3907ft 132kts
01-Oct-18 17:38 33.857316 -117.862591 65 3954ft 131kts
01-Oct-18 17:39 33.872030 -117.822415 59 3987ft 131kts
01-Oct-18 17:40 33.886908 -117.781992 66 4005ft 132kts
01-Oct-18 17:41 33.903045 -117.741785 60 4021ft 133kts
01-Oct-18 17:42 33.923233 -117.705344 28 4055ft 129kts
01-Oct-18 17:43 33.955518 -117.682965 25 3605ft 138kts
01-Oct-18 17:44 33.982816 -117.679693 273 3494ft 113kts
01-Oct-18 17:45 33.958169 -117.696463 209 3508ft 113kts
01-Oct-18 17:46 33.929422 -117.712486 210 3524ft 112kts
01-Oct-18 17:47 33.900034 -117.727163 217 3479ft 113kts
01-Oct-18 17:48 33.873690 -117.746168 210 3359ft 114kts
01-Oct-18 17:49 33.846500 -117.763607 199 3442ft 117kts
01-Oct-18 17:50 33.816211 -117.777207 208 3385ft 117kts
01-Oct-18 17:51 33.789929 -117.799890 223 3259ft 119kts
01-Oct-18 17:52 33.760158 -117.819597 202 2267ft 118kts
01-Oct-18 17:53 33.731976 -117.836155 202 1318ft 105kts
01-Oct-18 17:54 33.706492 -117.849815 205 646ft 99kts
01-Oct-18 17:55 33.684556 -117.863189 207 202ft 82kts
01-Oct-18 17:56 33.674405 -117.868475 158 60ft 0kts
01-Oct-18 17:57 33.674232 -117.868253 121 60ft 8kts
01-Oct-18 17:58 33.673822 -117.865550 30 60ft 0kts

Navigation Log

Ident Type
Flight plan parsing failed, navigation log unavailable